Latest Coastal Weather Observations for Mackay

IDQ60701

Issued at 10:01 am EST Friday 6 March 2015 (issued every 10 minutes, with the page automatically refreshed every 10 minutes)

About coastal observations | Map of coastal stations | Coastal observations for QLD | Marine services | Other Formats
Station Details ID: 033119 Name: MACKAY M.O Lat: -21.12 Lon: 149.22 Height: 30.26 m
Data from the previous 72 hours. | See also: Recent months at Mackay
Date/Time
EST
Temp

°C
Wind Pressure Rain
since 9am
mm
Weather Cloud Vis
km
Sea
Height
m
Swell
Dir
 
Speed
knots
Gust
knots
hPa Trend Height
m
Period
s
Dir
06/09:00am 28.8 SW 4 6 1007.4 R 0.0 Fine Mostly cloudy 20 - - - -
06/08:00am 25.9 SSW 7 11 1006.9 - 0.0 - Partly cloudy 10 - - - -
06/07:53am 26.0 SSW 6 9 1006.8 - 0.0 - Partly cloudy 10 - - - -
06/07:30am 25.8 SW 5 7 1006.2 - 0.0 - Mostly clear 10 - - - -
06/07:00am 25.5 SW 4 5 1005.7 - 0.0 - Mostly clear 10 - - - -
06/06:30am 25.0 WNW 3 6 1005.4 - 0.0 - Mostly clear 10 - - - -
06/05:30am 25.0 WNW 5 6 1005.1 - 0.0 - - - - - - -
06/05:00am 24.8 NW 5 6 1004.8 - 0.0 - - - - - - -
06/04:30am 24.8 NW 4 6 1004.6 - 0.0 - - - - - - -
06/04:00am 25.0 WNW 5 7 1004.5 - 0.0 - - - - - - -
06/03:30am 25.1 WNW 4 7 1004.6 - 0.0 - Partly cloudy - - - - -
06/03:00am 25.4 WNW 5 7 1004.8 - 0.0 - - - - - - -
06/02:30am 25.5 NW 5 6 1005.1 - 0.0 - - - - - - -
06/02:00am 25.6 NW 5 7 1005.5 - 0.0 - - - - - - -
06/01:30am 25.7 NW 6 7 1005.8 - 0.0 - - - - - - -
06/01:00am 25.9 NNW 6 8 1006.4 - 0.0 - - - - - - -
06/12:30am 26.0 NNW 5 7 1006.7 - 0.0 - - - - - - -
06/12:00am 26.0 NNW 4 7 1007.1 - 0.0 - Partly cloudy - - - - -
 
Date/Time
EST
Temp

°C
Wind Pressure Rain
since 9am
mm
Weather Cloud Vis
km
Sea
Height
m
Swell
Dir
 
Speed
knots
Gust
knots
hPa Trend Height
m
Period
s
Dir
05/11:30pm 26.1 N 5 7 1007.4 - 0.0 - - - - - - -
05/11:00pm 26.2 N 5 8 1007.5 - 0.0 - - - - - - -
05/10:30pm 26.3 N 5 6 1007.7 - 0.0 - - - - - - -
05/10:00pm 26.4 N 5 7 1007.7 - 0.0 - - - - - - -
05/09:30pm 26.3 N 5 7 1007.5 - 0.0 - - - - - - -
05/09:00pm 26.1 N 3 5 1007.2 F 0.0 - - - - - - -
05/08:30pm 26.2 N 4 5 1006.9 - 0.0 - - - - - - -
05/08:00pm 26.4 N 4 7 1006.7 - 0.0 - - - - - - -
05/07:30pm 26.5 N 4 6 1006.2 - 0.0 - - - - - - -
05/07:00pm 26.9 N 5 8 1006.0 - 0.0 - - - - - - -
05/06:30pm 27.2 N 6 9 1005.9 - 0.0 - - - - - - -
05/06:00pm 27.8 NNE 5 8 1005.7 F 0.0 - - - - - - -
05/05:30pm 28.4 NNE 7 9 1005.8 - 0.0 - - - - - - -
05/05:00pm 28.8 NNE 5 9 1005.8 - 0.0 - Mostly clear 10 - - - -
05/04:30pm 29.2 NE 6 8 1005.7 - 0.0 - Mostly clear 10 - - - -
05/04:00pm 30.5 NE 5 10 1006.0 - 0.0 - Mostly clear 10 - - - -
05/03:30pm 31.4 NE 5 8 1006.2 - 0.0 - Mostly clear 10 - - - -
05/03:00pm 31.1 NNE 6 8 1006.5 F 0.0 Haze Partly cloudy 20 - - - -
05/02:30pm 30.6 NNE 6 9 1007.1 - 0.0 - Mostly clear 10 - - - -
05/02:00pm 32.4 NNE 8 12 1007.7 - 0.0 - Mostly clear 10 - - - -
05/01:30pm 31.5 NNE 7 12 1008.2 - 0.0 - Mostly clear 10 - - - -
05/01:00pm 31.5 NE 7 11 1008.7 - 0.0 - Mostly clear 10 - - - -
05/12:30pm 30.9 ENE 6 10 1009.2 - 0.0 - Mostly clear 10 - - - -
05/12:00pm 29.3 E 6 10 1009.6 F 0.0 Haze Partly cloudy 20 - - - -
05/11:30am 29.0 ENE 6 9 1010.2 - 0.0 - Partly cloudy 10 - - - -
05/11:00am 29.2 E 7 9 1010.6 - 0.0 - Partly cloudy 10 - - - -
05/10:30am 29.6 E 5 10 1011.1 - 0.0 - Mostly clear 10 - - - -
05/10:00am 29.9 E 6 8 1011.0 - 0.0 - Mostly clear 10 - - - -
05/09:30am 29.0 E 6 8 1011.1 - 0.0 - Mostly clear 10 - - - -
05/09:00am 28.2 S 5 7 1011.0 R 0.0 Haze Mostly cloudy 20 - - - -
05/08:30am 27.2 SSW 4 6 1010.8 - 0.0 - Mostly clear 10 - - - -
05/08:00am 26.7 SSW 5 7 1010.7 - 0.0 - Mostly clear 10 - - - -
05/07:30am 25.4 SSW 4 6 1010.4 - 0.0 - Partly cloudy 10 - - - -
05/07:00am 24.6 SSW 5 8 1010.0 - 0.0 - Partly cloudy 10 - - - -
05/06:30am 23.9 SSW 6 7 1009.7 - 0.0 - Partly cloudy 10 - - - -
05/06:00am 24.1 SW 5 8 1009.4 F 0.0 Haze Partly cloudy 20 - - - -
05/05:30am 24.1 SW 5 7 1009.1 - 0.0 - - - - - - -
05/05:00am 23.9 SSW 6 7 1008.8 - 0.0 - - - - - - -
05/04:30am 24.2 SW 5 7 1008.9 - 0.0 - Partly cloudy - - - - -
05/04:00am 24.4 SW 5 7 1009.0 - 0.0 - Partly cloudy - - - - -
05/03:30am 24.6 SW 5 6 1009.0 - 0.0 - Partly cloudy - - - - -
05/03:00am 24.6 SW 6 8 1009.2 - 0.0 - Mostly clear - - - - -
05/02:30am 25.2 SW 4 5 1009.5 - 0.0 - Partly cloudy - - - - -
05/02:00am 26.7 SE 5 7 1009.6 - 0.0 - Partly cloudy - - - - -
05/01:30am 26.7 SE 6 10 1009.9 - 0.0 - Partly cloudy - - - - -
05/01:00am 26.9 ESE 6 10 1010.2 - 0.0 - Partly cloudy - - - - -
05/12:30am 27.0 ESE 5 10 1010.6 - 0.0 - Partly cloudy - - - - -
05/12:00am 27.0 ESE 6 10 1010.9 - 0.0 - Mostly clear - - - - -
 
Date/Time
EST
Temp

°C
Wind Pressure Rain
since 9am
mm
Weather Cloud Vis
km
Sea
Height
m
Swell
Dir
 
Speed
knots
Gust
knots
hPa Trend Height
m
Period
s
Dir
04/11:30pm 27.1 ESE 5 9 1011.1 - 0.0 - Partly cloudy - - - - -
04/11:00pm 27.1 E 5 8 1011.4 - 0.0 - Partly cloudy - - - - -
04/10:30pm 27.1 E 6 9 1011.6 - 0.0 - Partly cloudy - - - - -
04/10:00pm 27.1 ESE 6 9 1011.6 - 0.0 - Partly cloudy - - - - -
04/09:30pm 27.2 E 7 11 1011.5 - 0.0 - - - - - - -
04/09:00pm 27.1 E 7 12 1011.2 F 0.0 - Mostly clear - - - - -
04/08:30pm 27.1 E 7 11 1011.2 - 0.0 - - - - - - -
04/08:00pm 27.0 ESE 6 9 1010.9 - 0.0 - - - - - - -
04/07:30pm 26.9 SE 6 11 1010.8 - 0.0 - - - - - - -
04/07:00pm 27.0 SE 7 14 1010.4 - 0.0 - Partly cloudy - - - - -
04/06:30pm 27.0 SE 9 13 1010.3 - 0.0 - Partly cloudy - - - - -
04/06:00pm 27.5 SE 7 11 1010.3 F 0.0 - Mostly clear - - - - -
04/05:30pm 28.2 SE 7 12 1010.1 - 0.0 - Partly cloudy - - - - -
04/05:00pm 27.6 SSE 9 14 1010.0 - 0.0 - Mostly clear 10 - - - -
04/04:30pm 28.6 SE 9 15 1010.0 - 0.0 - Partly cloudy 10 - - - -
04/04:00pm 29.8 SE 8 11 1010.0 - 0.0 - Partly cloudy 10 - - - -
04/03:30pm 30.2 SE 8 13 1009.9 - 0.0 - Partly cloudy 10 - - - -
04/03:00pm 29.5 SE 7 13 1010.1 R 0.0 Fine Partly cloudy 20 - - - -
04/02:30pm 30.1 SE 8 13 1010.4 - 0.0 - Partly cloudy 10 - - - -
04/02:00pm 29.9 SE 9 13 1010.6 - 0.0 - Partly cloudy 10 - - - -
04/01:30pm 30.0 SE 9 13 1010.8 - 0.0 - Partly cloudy 10 - - - -
04/01:00pm 29.7 SE 8 14 1011.2 - 0.0 - Partly cloudy 10 - - - -
04/12:30pm 29.7 SE 8 14 1011.4 - 0.0 - Partly cloudy 10 - - - -
04/12:00pm 30.1 SE 9 15 1011.7 R 0.0 Fine Mostly clear 20 - - - -
04/11:30am 30.2 SE 10 16 1012.1 - 0.0 - Mostly clear 10 - - - -
04/11:00am 29.0 SE 10 16 1012.3 - 0.0 - Partly cloudy - - - - -
04/10:30am 29.3 SE 10 15 1012.3 - 0.0 - Mostly clear 10 - - - -
04/10:00am 29.2 SE 10 18 1012.3 - 0.0 - Mostly clear 10 - - - -
04/09:30am 28.0 SE 12 20 1012.2 - 0.0 - Mostly clear 10 - - - -
04/09:00am 28.9 SE 10 15 1012.0 F 0.2 Fine Partly cloudy 20 - - - -
04/08:30am 27.9 SE 10 18 1012.0 - 0.2 - Mostly clear 10 - - - -
04/08:00am 26.7 SE 7 14 1011.6 - 0.2 - Mostly clear 10 - - - -
04/07:30am 27.0 SSE 10 17 1011.3 - 0.0 - Mostly clear 10 - - - -
04/07:00am 25.6 SSE 9 14 1011.1 - 0.0 - Mostly clear 10 - - - -
04/06:30am 26.4 SE 11 15 1010.7 - 0.0 - Mostly clear 10 - - - -
04/06:00am 26.2 SE 9 15 1010.5 F 0.0 Fine Mostly clear 20 - - - -
04/05:30am 26.3 SE 10 18 1010.3 - 0.0 - - - - - - -
04/05:00am 26.3 SE 10 16 1010.1 - 0.0 - Partly cloudy - - - - -
04/04:30am 26.3 SE 9 14 1010.0 - 0.0 - - - - - - -
04/04:00am 26.5 SE 9 16 1010.1 - 0.0 - Partly cloudy - - - - -
04/03:30am 26.5 SE 10 16 1010.1 - 0.0 - Partly cloudy - - - - -
04/03:00am 26.4 SE 8 15 1010.2 - 0.0 - - - - - - -
04/02:30am 26.4 SE 9 15 1010.5 - 0.0 - Partly cloudy - - - - -
04/02:00am 26.6 SE 9 16 1010.8 - 0.0 - Partly cloudy - - - - -
04/01:30am 26.6 SE 9 16 1011.2 - 0.0 - Partly cloudy - - - - -
04/01:00am 26.7 SE 10 16 1011.4 - 0.0 - Partly cloudy - - - - -
04/12:30am 26.7 SE 9 14 1012.0 - 0.0 - Partly cloudy - - - - -
04/12:00am 26.7 SE 8 14 1012.2 - 0.0 - Mostly clear - - - - -
 
Date/Time
EST
Temp

°C
Wind Pressure Rain
since 9am
mm
Weather Cloud Vis
km
Sea
Height
m
Swell
Dir
 
Speed
knots
Gust
knots
hPa Trend Height
m
Period
s
Dir
03/11:30pm 26.7 SE 8 14 1012.5 - 0.0 - Partly cloudy - - - - -
03/11:00pm 26.8 SE 9 14 1012.5 - 0.0 - Partly cloudy - - - - -
03/10:30pm 26.9 SE 9 13 1012.6 - 0.0 - Partly cloudy - - - - -
03/10:00pm 26.8 SE 8 14 1012.7 - 0.0 - - - - - - -
03/09:30pm 26.8 ESE 9 14 1012.7 - 0.0 - - - - - - -
03/09:00pm 26.9 ESE 10 16 1012.3 S 0.0 - - - - - - -
03/08:30pm 27.1 ESE 10 16 1012.0 - 0.0 - - - - - - -
03/08:00pm 27.0 ESE 11 16 1011.4 - 0.0 - - - - - - -
03/07:30pm 27.0 ESE 10 17 1011.2 - 0.0 - - - - - - -
03/07:00pm 27.0 SE 10 17 1011.2 - 0.0 - Partly cloudy - - - - -
03/06:30pm 27.2 SE 9 15 1010.8 - 0.0 - - - - - - -
03/06:00pm 27.6 ESE 9 15 1010.5 S 0.0 - Mostly clear - - - - -
03/05:30pm 28.0 SE 10 15 1010.2 - 0.0 - - - - - - -
03/05:00pm 28.3 ESE 9 16 1010.1 - 0.0 - Mostly clear 10 - - - -
03/04:30pm 29.2 SE 10 16 1010.0 - 0.0 - Mostly clear 10 - - - -
03/04:00pm 29.3 SE 11 16 1009.9 - 0.0 - Mostly clear 10 - - - -
03/03:30pm 29.7 SE 12 21 1010.0 - 0.0 - Mostly clear 10 - - - -
03/03:00pm 29.7 SE 11 17 1010.1 F 0.0 Fine Mostly clear 25 - - - -
03/02:30pm 30.5 SE 11 18 1010.2 - 0.0 - Mostly clear 10 - - - -
03/02:00pm 30.4 SE 11 19 1010.6 - 0.0 - Mostly clear 10 - - - -
03/01:30pm 30.2 SSE 11 17 1011.0 - 0.0 - Mostly clear 10 - - - -
03/01:00pm 29.9 SSE 12 19 1011.4 - 0.0 - Mostly clear 10 - - - -
03/12:30pm 30.2 SSE 12 19 1011.7 - 0.0 - Mostly clear 10 - - - -
03/12:00pm 30.4 SSE 12 19 1012.3 R 0.0 Fine Mostly clear 20 - - - -
03/11:30am 29.8 SSE 13 21 1012.4 - 0.0 - Partly cloudy 10 - - - -
03/11:00am 29.8 SE 12 18 1012.7 - 0.0 - Partly cloudy 10 - - - -
03/10:30am 29.7 SE 11 17 1012.9 - 0.0 - Partly cloudy 10 - - - -

Other Formats:

Comma delimited format used in spreadsheet applications
http://www.bom.gov.au/fwo/IDQ60701/IDQ60701.94367.axf

JavaScript Object Notation format (JSON) in row-major order
http://www.bom.gov.au/fwo/IDQ60701/IDQ60701.94367.json